Time;durP1;ratioP1;P1;durP2;ratioP2;P2;SDS_P1;SDS_P2;PMS_P1;PMS_P2;Temp;Humidity;BMP_temperature;BMP_pressure;BME280_temperature;BME280_humidity;BME280_pressure;Samples;Min_cycle;Max_cycle;Signal;HPM_P1;HPM_P2
2022/02/24 00:01:31;;;;;;;102.90;61.00;;;;;;;1.26;70.17;101222.31;108563;1274;23056;-76
2022/02/24 00:04:03;;;;;;;109.00;62.80;;;;;;;1.29;70.34;101225.08;108786;1272;21994;-78
2022/02/24 00:06:32;;;;;;;101.20;59.30;;;;;;;1.31;70.37;101227.58;108764;1272;22001;-76
2022/02/24 00:09:07;;;;;;;100.40;61.00;;;;;;;1.33;70.34;101231.83;108575;1273;22001;-75
2022/02/24 00:11:42;;;;;;;150.00;79.90;;;;;;;1.32;70.21;101232.71;108725;1273;23048;-80
2022/02/24 00:14:11;;;;;;;115.30;65.80;;;;;;;1.30;70.11;101229.75;108383;1279;22002;-81
2022/02/24 00:16:41;;;;;;;123.30;68.30;;;;;;;1.27;70.08;101230.25;108495;1277;23612;-81
2022/02/24 00:19:10;;;;;;;113.00;66.50;;;;;;;1.26;70.21;101230.68;108667;1276;23499;-80
2022/02/24 00:21:40;;;;;;;97.30;57.90;;;;;;;1.25;70.29;101224.61;108327;1279;22004;-76
2022/02/24 00:24:10;;;;;;;96.90;59.80;;;;;;;1.25;70.31;101222.90;108314;1279;23107;-77
2022/02/24 00:26:39;;;;;;;99.00;58.60;;;;;;;1.25;70.37;101225.34;108359;1279;23032;-77
2022/02/24 00:29:08;;;;;;;94.00;54.50;;;;;;;1.20;70.17;101226.13;108376;1276;24322;-77
2022/02/24 00:31:37;;;;;;;110.10;58.40;;;;;;;1.12;70.22;101223.80;108424;1273;23712;-77
2022/02/24 00:34:06;;;;;;;97.60;56.50;;;;;;;1.04;70.30;101221.64;108644;1275;23699;-77
2022/02/24 00:36:35;;;;;;;116.30;63.90;;;;;;;0.96;70.40;101222.79;108479;1274;21995;-75
2022/02/24 00:39:04;;;;;;;102.70;57.60;;;;;;;0.89;70.68;101221.21;108733;1273;22791;-76
2022/02/24 00:41:37;;;;;;;94.00;54.80;;;;;;;0.88;70.89;101221.46;108675;1273;21978;-76
2022/02/24 00:44:06;;;;;;;;;;;;;;;0.87;70.97;101218.90;108506;1275;23708;-76
2022/02/24 00:46:35;;;;;;;95.00;56.60;;;;;;;0.79;71.10;101217.31;108699;1272;22992;-76
2022/02/24 00:49:04;;;;;;;98.60;55.40;;;;;;;0.70;71.08;101212.92;108715;1273;21992;-76
2022/02/24 00:51:35;;;;;;;92.90;57.90;;;;;;;0.66;71.25;101212.27;108770;1272;21989;-77
2022/02/24 00:54:07;;;;;;;99.70;59.80;;;;;;;0.65;71.43;101210.61;108610;1273;22044;-76
2022/02/24 00:56:36;;;;;;;99.70;62.90;;;;;;;0.63;71.59;101204.11;108710;1272;22014;-76
2022/02/24 00:59:05;;;;;;;115.00;70.80;;;;;;;0.61;71.70;101200.59;108620;1273;23018;-77
2022/02/24 01:01:34;;;;;;;102.30;67.80;;;;;;;0.61;71.75;101203.19;108720;1273;21992;-77
2022/02/24 01:04:04;;;;;;;105.90;68.80;;;;;;;0.61;71.86;101198.67;108755;1273;22929;-77
2022/02/24 01:06:33;;;;;;;109.70;70.40;;;;;;;0.61;71.88;101194.49;108575;1273;23606;-76
2022/02/24 01:09:02;;;;;;;105.10;69.90;;;;;;;0.62;71.99;101193.23;108612;1273;21994;-77
2022/02/24 01:11:30;;;;;;;108.00;73.50;;;;;;;0.64;71.99;101193.82;108724;1273;22006;-77
2022/02/24 01:13:59;;;;;;;105.60;71.40;;;;;;;0.66;72.07;101193.20;108657;1273;23618;-77
2022/02/24 01:16:28;;;;;;;96.40;69.50;;;;;;;0.66;72.19;101191.61;108732;1272;23905;-75
2022/02/24 01:18:57;;;;;;;99.40;70.80;;;;;;;0.65;72.05;101192.02;108794;1272;21991;-75
2022/02/24 01:21:27;;;;;;;92.80;67.20;;;;;;;0.65;72.17;101193.80;108701;1273;23622;-76
2022/02/24 01:23:56;;;;;;;101.40;70.40;;;;;;;0.65;72.11;101196.23;108702;1272;21988;-77
2022/02/24 01:26:24;;;;;;;101.10;71.20;;;;;;;0.65;72.08;101191.36;108673;1272;21988;-76
2022/02/24 01:28:54;;;;;;;98.70;67.50;;;;;;;0.65;72.14;101189.98;108696;1272;21988;-76
2022/02/24 01:31:25;;;;;;;95.50;69.90;;;;;;;0.64;72.08;101189.86;108691;1273;22790;-77
2022/02/24 01:33:54;;;;;;;103.20;72.80;;;;;;;0.62;71.99;101191.35;108778;1272;24341;-77
2022/02/24 01:36:23;;;;;;;96.60;67.20;;;;;;;0.59;71.98;101188.23;108730;1272;21981;-77
2022/02/24 01:38:51;;;;;;;90.20;64.50;;;;;;;0.55;71.97;101178.58;108590;1273;23626;-76
2022/02/24 01:41:20;;;;;;;98.60;67.80;;;;;;;0.53;72.14;101172.44;108583;1274;22002;-76
2022/02/24 01:43:49;;;;;;;92.40;65.50;;;;;;;0.52;72.15;101170.92;108738;1272;22005;-77
2022/02/24 01:46:19;;;;;;;106.10;72.40;;;;;;;0.47;72.10;101167.02;108759;1272;21998;-77
2022/02/24 01:48:49;;;;;;;106.30;71.10;;;;;;;0.42;72.22;101160.52;108723;1273;23568;-77
2022/02/24 01:51:18;;;;;;;114.80;74.50;;;;;;;0.38;72.30;101161.27;108727;1273;24325;-76
2022/02/24 01:53:47;;;;;;;119.20;76.30;;;;;;;0.34;72.36;101158.86;108709;1273;22040;-77
2022/02/24 01:56:16;;;;;;;110.00;68.40;;;;;;;0.30;72.52;101152.54;108703;1272;22810;-77
2022/02/24 01:58:45;;;;;;;98.90;62.40;;;;;;;0.26;72.60;101152.73;108761;1271;22020;-77
2022/02/24 02:01:15;;;;;;;97.60;58.60;;;;;;;0.22;72.64;101147.91;108642;1273;22754;-77
2022/02/24 02:03:45;;;;;;;97.70;63.00;;;;;;;0.18;72.79;101146.02;108794;1272;21987;-76
2022/02/24 02:06:14;;;;;;;85.30;56.40;;;;;;;0.17;72.97;101140.57;108696;1273;23766;-77
2022/02/24 02:08:43;;;;;;;87.30;57.10;;;;;;;0.18;73.14;101142.94;108806;1273;21992;-78
2022/02/24 02:11:12;;;;;;;81.80;53.60;;;;;;;0.18;73.12;101146.41;108746;1273;21994;-77
2022/02/24 02:13:43;;;;;;;79.20;49.10;;;;;;;0.14;73.01;101139.50;108764;1272;23786;-77
2022/02/24 02:16:12;;;;;;;83.00;50.60;;;;;;;0.10;72.94;101140.39;108749;1272;24333;-76
2022/02/24 02:18:44;;;;;;;79.00;54.80;;;;;;;0.06;73.14;101135.46;108766;1273;21966;-77
2022/02/24 02:21:14;;;;;;;83.50;51.50;;;;;;;0.01;73.17;101130.84;108705;1272;23654;-76
2022/02/24 02:23:43;;;;;;;71.10;47.30;;;;;;;-0.04;73.29;101126.24;108762;1272;21994;-76
2022/02/24 02:26:12;;;;;;;79.60;44.10;;;;;;;-0.10;73.38;101122.91;108710;1273;23749;-77
2022/02/24 02:28:41;;;;;;;70.70;41.50;;;;;;;-0.15;73.53;101126.65;108721;1272;22787;-76
2022/02/24 02:31:10;;;;;;;73.40;43.20;;;;;;;-0.19;73.68;101118.59;108690;1273;22592;-76
2022/02/24 02:33:41;;;;;;;69.00;39.10;;;;;;;-0.24;73.81;101117.41;108718;1272;22009;-76
2022/02/24 02:36:10;;;;;;;67.50;37.80;;;;;;;-0.28;73.92;101118.16;108721;1271;22324;-77
2022/02/24 02:38:42;;;;;;;63.90;37.10;;;;;;;-0.32;74.06;101112.64;108681;1272;23118;-79
2022/02/24 02:41:10;;;;;;;59.70;35.40;;;;;;;-0.34;74.19;101112.95;108568;1275;23619;-76
2022/02/24 02:43:39;;;;;;;62.90;33.80;;;;;;;-0.36;74.28;101105.60;108686;1273;23117;-77
2022/02/24 02:46:08;;;;;;;74.80;38.20;;;;;;;-0.38;74.29;101097.89;108723;1273;22857;-76
2022/02/24 02:48:38;;;;;;;75.50;37.90;;;;;;;-0.39;74.35;101097.13;108727;1273;21998;-76
2022/02/24 02:51:07;;;;;;;61.70;34.90;;;;;;;-0.41;74.49;101093.07;108738;1273;21989;-76
2022/02/24 02:53:36;;;;;;;67.50;38.50;;;;;;;-0.44;74.57;101090.59;108711;1272;23625;-77
2022/02/24 02:56:06;;;;;;;59.00;33.20;;;;;;;-0.46;74.66;101088.27;108669;1272;22011;-77
2022/02/24 02:58:35;;;;;;;55.50;34.10;;;;;;;-0.47;74.73;101085.24;108619;1273;22001;-77
2022/02/24 03:01:05;;;;;;;60.60;35.00;;;;;;;-0.48;74.73;101086.69;108535;1273;23716;-76
2022/02/24 03:03:34;;;;;;;64.70;35.80;;;;;;;-0.49;74.88;101089.64;108554;1273;23080;-77
2022/02/24 03:06:04;;;;;;;63.30;36.00;;;;;;;-0.49;74.94;101087.55;108693;1271;22012;-77
2022/02/24 03:08:32;;;;;;;55.30;32.80;;;;;;;-0.49;75.03;101084.81;108726;1273;23042;-77
2022/02/24 03:11:02;;;;;;;59.30;34.50;;;;;;;-0.50;75.12;101083.83;108753;1272;23767;-77
2022/02/24 03:13:31;;;;;;;60.60;34.80;;;;;;;-0.53;75.09;101081.56;108509;1276;22275;-77
2022/02/24 03:16:00;;;;;;;60.00;37.20;;;;;;;-0.55;75.11;101080.96;108607;1273;22614;-76
2022/02/24 03:18:29;;;;;;;57.70;33.70;;;;;;;-0.57;75.24;101079.88;108452;1274;23160;-76
2022/02/24 03:20:59;;;;;;;61.60;34.70;;;;;;;-0.58;75.33;101077.85;108427;1275;22007;-76
2022/02/24 03:23:28;;;;;;;63.90;37.70;;;;;;;-0.58;75.47;101074.73;108457;1275;22004;-77
2022/02/24 03:25:57;;;;;;;54.50;32.70;;;;;;;-0.57;75.52;101077.30;108502;1274;23832;-77
2022/02/24 03:28:26;;;;;;;56.40;31.00;;;;;;;-0.58;75.51;101071.08;108419;1276;22010;-77
2022/02/24 03:30:58;;;;;;;54.70;32.20;;;;;;;-0.60;75.60;101068.41;108679;1273;23093;-77
2022/02/24 03:33:30;;;;;;;47.10;30.20;;;;;;;-0.62;75.58;101070.08;108547;1273;23721;-77
2022/02/24 03:36:04;;;;;;;49.10;32.40;;;;;;;-0.63;75.64;101065.10;108740;1273;23843;-77
2022/02/24 03:38:33;;;;;;;50.50;31.10;;;;;;;-0.64;75.71;101063.59;108724;1272;23752;-76
2022/02/24 03:41:03;;;;;;;47.10;31.10;;;;;;;-0.64;75.81;101065.16;108787;1272;23663;-77
2022/02/24 03:43:32;;;;;;;58.50;32.60;;;;;;;-0.65;75.80;101062.27;108726;1273;23093;-77
2022/02/24 03:46:01;;;;;;;50.10;31.90;;;;;;;-0.65;75.85;101059.18;108388;1276;21994;-77
2022/02/24 03:48:30;;;;;;;55.00;30.50;;;;;;;-0.65;76.06;101055.35;108461;1276;22024;-77
2022/02/24 03:51:01;;;;;;;50.60;33.30;;;;;;;-0.65;75.97;101052.95;108447;1274;23616;-76
2022/02/24 03:53:29;;;;;;;58.80;31.50;;;;;;;-0.66;76.04;101051.27;108494;1276;21995;-77
2022/02/24 03:55:58;;;;;;;55.30;32.70;;;;;;;-0.67;76.15;101048.70;108651;1275;21997;-76
2022/02/24 03:58:29;;;;;;;51.90;29.90;;;;;;;-0.67;76.17;101042.15;108526;1273;22030;-76
2022/02/24 04:00:58;;;;;;;47.40;30.30;;;;;;;-0.67;76.19;101044.56;108659;1274;23012;-76
2022/02/24 04:03:33;;;;;;;47.40;28.40;;;;;;;-0.68;76.34;101038.75;108514;1272;21997;-76
2022/02/24 04:06:05;;;;;;;52.10;32.50;;;;;;;-0.69;76.35;101037.05;108748;1272;22005;-76
2022/02/24 04:08:34;;;;;;;56.70;34.70;;;;;;;-0.71;76.39;101030.73;108726;1273;23615;-76
2022/02/24 04:11:07;;;;;;;57.10;32.60;;;;;;;-0.72;76.45;101023.70;108776;1272;23076;-76
2022/02/24 04:13:36;;;;;;;46.90;30.10;;;;;;;-0.74;76.55;101026.24;108746;1272;23753;-76
2022/02/24 04:16:08;;;;;;;53.90;32.10;;;;;;;-0.75;76.58;101025.95;108664;1272;23857;-77
2022/02/24 04:18:37;;;;;;;53.10;31.70;;;;;;;-0.76;76.65;101026.84;108761;1273;23622;-77
2022/02/24 04:21:08;;;;;;;56.20;32.90;;;;;;;-0.75;76.73;101026.13;108698;1272;23641;-78
2022/02/24 04:23:37;;;;;;;61.00;34.80;;;;;;;-0.75;76.81;101026.77;108801;1272;22003;-76
2022/02/24 04:26:06;;;;;;;54.10;33.10;;;;;;;-0.74;76.86;101024.48;108738;1272;21991;-76
2022/02/24 04:28:35;;;;;;;62.10;33.10;;;;;;;-0.73;76.83;101023.24;108691;1273;23024;-76
2022/02/24 04:31:04;;;;;;;54.80;36.60;;;;;;;-0.74;76.85;101027.98;108724;1272;22005;-76
2022/02/24 04:33:33;;;;;;;61.20;35.80;;;;;;;-0.75;76.96;101027.33;108524;1274;22007;-76
2022/02/24 04:36:03;;;;;;;54.90;34.50;;;;;;;-0.75;77.00;101027.50;108451;1274;22062;-76
2022/02/24 04:38:32;;;;;;;56.10;34.80;;;;;;;-0.75;77.08;101026.45;108609;1273;22029;-78
2022/02/24 04:41:04;;;;;;;51.60;34.10;;;;;;;-0.76;77.06;101026.52;108654;1273;21990;-75
2022/02/24 04:43:34;;;;;;;62.40;36.50;;;;;;;-0.78;77.07;101025.23;108887;1275;22087;-78
2022/02/24 04:46:04;;;;;;;58.90;34.10;;;;;;;-0.80;77.09;101022.22;108584;1276;23720;-76
2022/02/24 04:48:33;;;;;;;57.50;35.00;;;;;;;-0.82;77.18;101023.55;108810;1273;23043;-77
2022/02/24 04:51:02;;;;;;;63.90;37.10;;;;;;;-0.84;77.21;101022.46;108692;1273;22005;-77
2022/02/24 04:53:32;;;;;;;59.80;37.20;;;;;;;-0.85;77.20;101021.82;108808;1271;21999;-81
2022/02/24 04:56:01;;;;;;;58.50;37.00;;;;;;;-0.86;77.25;101019.77;108812;1273;22468;-80
2022/02/24 04:58:30;;;;;;;59.80;38.00;;;;;;;-0.86;77.42;101017.00;108838;1272;23017;-77
2022/02/24 05:00:59;;;;;;;58.10;36.40;;;;;;;-0.84;77.41;101017.27;108720;1272;21995;-77
2022/02/24 05:03:31;;;;;;;57.20;34.70;;;;;;;-0.85;77.43;101016.09;108750;1272;21987;-77
2022/02/24 05:06:00;;;;;;;51.90;34.70;;;;;;;-0.87;77.41;101017.73;108676;1272;22410;-76
2022/02/24 05:08:30;;;;;;;58.00;31.90;;;;;;;-0.88;77.52;101015.55;108727;1273;23795;-77
2022/02/24 05:10:59;;;;;;;58.00;35.90;;;;;;;-0.89;77.52;101015.57;108630;1272;22001;-76
2022/02/24 05:13:28;;;;;;;59.90;34.80;;;;;;;-0.90;77.48;101014.58;108742;1272;22999;-76
2022/02/24 05:15:57;;;;;;;64.90;35.30;;;;;;;-0.90;77.63;101013.06;108721;1272;21999;-76
2022/02/24 05:18:26;;;;;;;52.30;33.40;;;;;;;-0.90;77.59;101014.45;108758;1272;23722;-76
2022/02/24 05:20:55;;;;;;;56.90;35.10;;;;;;;-0.91;77.68;101011.04;108760;1272;22075;-76
2022/02/24 05:23:25;;;;;;;57.00;34.90;;;;;;;-0.92;77.73;101012.63;108623;1272;23746;-77
2022/02/24 05:25:54;;;;;;;55.20;34.70;;;;;;;-0.93;77.77;101010.77;108733;1273;21993;-76
2022/02/24 05:28:22;;;;;;;53.50;31.10;;;;;;;-0.93;77.72;101009.93;108690;1273;22000;-76
2022/02/24 05:30:58;;;;;;;54.30;32.50;;;;;;;-0.95;77.78;101008.99;108675;1272;23624;-78
2022/02/24 05:33:30;;;;;;;55.90;32.40;;;;;;;-0.96;77.81;101008.34;108772;1273;23719;-77
2022/02/24 05:36:02;;;;;;;56.40;34.20;;;;;;;-0.97;77.85;101007.14;108668;1272;21993;-77
2022/02/24 05:38:32;;;;;;;51.90;35.10;;;;;;;-0.97;77.83;100999.04;108613;1272;21997;-76
2022/02/24 05:41:01;;;;;;;66.00;38.20;;;;;;;-0.97;77.85;100994.88;108713;1273;23629;-76
2022/02/24 05:43:30;;;;;;;53.40;32.70;;;;;;;-0.96;77.91;100992.08;108514;1272;22099;-77
2022/02/24 05:45:59;;;;;;;50.20;34.50;;;;;;;-0.96;77.94;100990.69;108646;1272;22004;-76
2022/02/24 05:48:28;;;;;;;54.50;33.50;;;;;;;-0.97;77.99;100986.09;108727;1270;22672;-76
2022/02/24 05:50:57;;;;;;;51.50;31.10;;;;;;;-0.97;77.98;100984.20;108676;1273;22009;-77
2022/02/24 05:53:26;;;;;;;54.50;32.50;;;;;;;-0.96;78.09;100983.96;108698;1273;22860;-75
2022/02/24 05:55:58;;;;;;;52.90;33.00;;;;;;;-0.94;78.12;100981.63;108781;1270;23023;-76
2022/02/24 05:58:27;;;;;;;52.70;34.70;;;;;;;-0.94;78.08;100981.95;108822;1272;22001;-76
2022/02/24 06:00:56;;;;;;;54.40;34.30;;;;;;;-0.93;78.11;100984.14;108697;1272;23606;-77
2022/02/24 06:03:25;;;;;;;56.70;36.40;;;;;;;-0.90;78.08;100983.66;108691;1273;22001;-75
2022/02/24 06:05:56;;;;;;;57.20;35.70;;;;;;;-0.88;78.06;100979.07;108745;1272;21996;-75
2022/02/24 06:08:25;;;;;;;59.40;36.60;;;;;;;-0.85;78.11;100976.86;108735;1273;22398;-77
2022/02/24 06:10:54;;;;;;;51.40;32.80;;;;;;;-0.82;78.23;100971.33;108753;1273;22049;-76
2022/02/24 06:13:23;;;;;;;57.40;37.00;;;;;;;-0.79;78.20;100967.19;108736;1273;22017;-77
2022/02/24 06:15:52;;;;;;;50.50;31.90;;;;;;;-0.76;78.20;100960.98;108465;1276;22071;-77
2022/02/24 06:18:21;;;;;;;56.90;33.60;;;;;;;-0.74;78.18;100957.40;108507;1276;23786;-78
2022/02/24 06:20:50;;;;;;;59.00;35.30;;;;;;;-0.70;78.16;100953.57;108421;1276;21995;-78
2022/02/24 06:23:19;;;;;;;47.20;32.70;;;;;;;-0.66;78.21;100949.73;108500;1276;23654;-76
2022/02/24 06:25:48;;;;;;;51.80;31.30;;;;;;;-0.61;78.15;100943.93;108417;1276;23861;-77
2022/02/24 06:28:18;;;;;;;52.20;32.40;;;;;;;-0.56;78.17;100939.68;108498;1276;23087;-78
2022/02/24 06:30:47;;;;;;;47.60;31.60;;;;;;;-0.51;78.21;100936.25;108419;1275;22799;-77
2022/02/24 06:33:16;;;;;;;49.00;29.90;;;;;;;-0.44;78.18;100933.82;108572;1273;22001;-78
2022/02/24 06:35:45;;;;;;;51.90;33.90;;;;;;;-0.37;78.10;100932.42;108816;1273;22451;-77
2022/02/24 06:38:14;;;;;;;64.90;38.00;;;;;;;-0.31;78.06;100928.45;108931;1272;22232;-77
2022/02/24 06:40:44;;;;;;;71.90;45.40;;;;;;;-0.25;78.09;100924.11;108828;1272;22010;-77
2022/02/24 06:43:13;;;;;;;63.50;43.10;;;;;;;-0.17;78.17;100920.41;108845;1272;22006;-76
2022/02/24 06:45:54;;;;;;;63.80;41.20;;;;;;;-0.07;78.13;100918.81;109644;1272;22007;-78
2022/02/24 06:48:25;;;;;;;70.30;44.00;;;;;;;0.03;77.89;100913.43;108788;1273;22019;-77
2022/02/24 06:50:54;;;;;;;59.00;36.30;;;;;;;0.10;77.81;100910.55;108827;1272;22014;-77
2022/02/24 06:53:23;;;;;;;56.30;35.90;;;;;;;0.19;77.70;100905.55;108751;1272;23105;-77
2022/02/24 06:55:52;;;;;;;62.70;35.40;;;;;;;0.28;77.63;100901.40;108719;1272;21991;-76
2022/02/24 06:58:21;;;;;;;64.60;36.80;;;;;;;0.38;77.58;100898.58;108756;1271;23711;-76
2022/02/24 07:00:50;;;;;;;64.60;36.70;;;;;;;0.47;77.33;100897.89;108645;1272;22003;-76
2022/02/24 07:03:19;;;;;;;60.10;35.00;;;;;;;0.55;77.19;100902.08;108768;1273;23639;-76
2022/02/24 07:05:48;;;;;;;58.80;36.00;;;;;;;0.63;77.01;100902.33;108749;1272;22589;-76
2022/02/24 07:08:17;;;;;;;69.30;39.10;;;;;;;0.70;76.77;100898.64;108826;1272;21996;-77
2022/02/24 07:10:46;;;;;;;54.70;32.90;;;;;;;0.78;76.66;100893.63;108749;1272;22001;-76
2022/02/24 07:13:15;;;;;;;58.90;36.00;;;;;;;0.86;76.53;100891.59;108558;1270;278514;-77
2022/02/24 07:15:44;;;;;;;250.90;144.50;;;;;;;0.95;76.35;100890.36;108717;1272;22049;-77
2022/02/24 07:18:13;;;;;;;193.80;100.80;;;;;;;1.03;76.26;100884.45;108424;1276;23618;-76
2022/02/24 07:20:42;;;;;;;178.20;100.40;;;;;;;1.13;76.00;100881.10;108493;1275;22021;-77
2022/02/24 07:23:11;;;;;;;76.30;43.70;;;;;;;1.22;75.77;100878.80;108082;1281;22039;-78
2022/02/24 07:25:41;;;;;;;83.90;48.10;;;;;;;1.32;75.52;100871.45;108098;1281;22928;-77
2022/02/24 07:28:10;;;;;;;58.60;32.80;;;;;;;1.43;75.36;100866.77;108025;1281;24003;-76
2022/02/24 07:30:46;;;;;;;66.20;38.00;;;;;;;1.55;75.04;100866.88;108152;1281;22029;-80
2022/02/24 07:33:21;;;;;;;96.30;48.20;;;;;;;1.70;74.99;100869.38;107724;1284;23077;-82
2022/02/24 07:35:53;;;;;;;59.80;32.20;;;;;;;1.87;74.76;100869.33;107614;1284;23091;-81
2022/02/24 07:38:28;;;;;;;126.70;50.90;;;;;;;2.05;74.54;100862.96;107721;1288;23037;-79
2022/02/24 07:41:04;;;;;;;54.50;29.90;;;;;;;2.24;74.50;100860.98;107758;1286;22020;-82
2022/02/24 07:43:33;;;;;;;40.00;23.80;;;;;;;2.48;74.40;100860.08;107996;1286;22024;-82
2022/02/24 07:46:03;;;;;;;44.40;24.80;;;;;;;2.71;73.85;100856.41;107891;1285;22269;-82
2022/02/24 07:48:33;;;;;;;32.90;20.20;;;;;;;2.98;73.37;100849.56;108009;1288;22030;-82
2022/02/24 07:51:06;;;;;;;49.70;25.00;;;;;;;3.26;72.71;100840.61;107625;1290;23664;-81
2022/02/24 07:53:37;;;;;;;49.60;26.40;;;;;;;3.58;72.29;100840.11;107759;1288;23122;-80
2022/02/24 07:56:09;;;;;;;49.80;26.20;;;;;;;3.97;72.39;100837.00;107960;1290;23730;-81
2022/02/24 07:58:48;;;;;;;40.60;24.00;;;;;;;4.44;71.96;100833.13;107481;1289;22102;-80
2022/02/24 08:01:23;;;;;;;44.90;24.70;;;;;;;4.88;70.40;100831.72;107876;1289;22892;-80
2022/02/24 08:03:58;;;;;;;44.50;25.10;;;;;;;5.25;69.82;100827.54;107529;1293;23058;-81
2022/02/24 08:06:31;;;;;;;48.00;26.60;;;;;;;5.70;69.02;100822.21;107558;1287;22011;-83
2022/02/24 08:09:01;;;;;;;44.50;24.30;;;;;;;6.10;67.41;100818.63;107712;1285;22012;-82
2022/02/24 08:11:38;;;;;;;40.70;24.80;;;;;;;6.38;65.35;100814.16;108222;1284;22324;-88
2022/02/24 08:14:13;;;;;;;39.90;22.10;;;;;;;6.64;63.65;100807.23;108029;1283;24305;-80
2022/02/24 08:16:48;;;;;;;35.30;21.30;;;;;;;6.88;62.54;100800.66;108177;1280;22035;-79
2022/02/24 08:19:18;;;;;;;28.50;18.10;;;;;;;7.16;61.88;100792.20;108482;1279;23112;-78
2022/02/24 08:21:47;;;;;;;33.00;19.20;;;;;;;7.44;60.89;100790.27;108264;1276;23054;-79
2022/02/24 08:24:17;;;;;;;33.30;18.80;;;;;;;7.71;59.46;100788.16;108283;1279;22002;-79
2022/02/24 08:26:46;;;;;;;36.20;19.80;;;;;;;7.97;58.65;100788.30;108382;1279;23102;-79
2022/02/24 08:29:18;;;;;;;33.20;17.40;;;;;;;8.28;58.22;100782.26;108635;1279;22502;-80
2022/02/24 08:31:48;;;;;;;32.20;18.00;;;;;;;8.48;55.94;100779.54;108532;1276;23623;-79
2022/02/24 08:34:17;;;;;;;29.10;15.50;;;;;;;8.65;55.49;100773.55;108763;1276;22018;-79
2022/02/24 08:36:47;;;;;;;31.60;17.90;;;;;;;8.73;54.20;100773.91;108638;1275;23058;-80
2022/02/24 08:39:16;;;;;;;27.00;18.20;;;;;;;8.75;53.85;100768.60;108707;1276;22001;-80
2022/02/24 08:41:48;;;;;;;32.80;17.40;;;;;;;8.85;53.36;100759.73;108609;1273;23657;-79
2022/02/24 08:44:20;;;;;;;25.40;16.30;;;;;;;9.01;52.77;100760.17;109024;1272;22004;-79
2022/02/24 08:46:50;;;;;;;31.10;17.60;;;;;;;9.03;51.38;100757.86;108847;1272;22812;-80
2022/02/24 08:49:20;;;;;;;27.80;17.60;;;;;;;8.97;50.78;100751.38;108465;1278;22477;-80
2022/02/24 08:51:49;;;;;;;34.80;20.00;;;;;;;8.99;50.82;100744.38;108765;1278;22005;-80
2022/02/24 08:54:19;;;;;;;34.00;18.00;;;;;;;9.15;51.08;100746.64;108595;1278;21997;-79
2022/02/24 08:56:48;;;;;;;28.40;16.00;;;;;;;9.21;50.79;100744.87;108785;1278;21999;-80
2022/02/24 08:59:17;;;;;;;31.80;18.00;;;;;;;9.26;50.44;100743.86;108632;1278;23042;-80
2022/02/24 09:01:48;;;;;;;35.80;18.50;;;;;;;9.30;50.02;100740.48;108804;1278;21991;-79
2022/02/24 09:04:22;;;;;;;26.50;16.30;;;;;;;9.22;49.23;100735.83;108696;1276;23234;-80
2022/02/24 09:06:51;;;;;;;29.60;17.80;;;;;;;9.12;49.32;100736.48;108747;1273;21992;-80
2022/02/24 09:09:24;;;;;;;27.10;17.40;;;;;;;9.15;49.84;100726.85;108666;1273;23806;-80
2022/02/24 09:11:53;;;;;;;;;;;;;;;9.26;49.87;100727.84;109285;1272;22245;-80
2022/02/24 09:14:22;;;;;;;28.30;15.30;;;;;;;9.19;49.16;100724.30;109183;1273;22003;-80
2022/02/24 09:16:52;;;;;;;29.40;15.70;;;;;;;9.20;49.30;100719.52;108661;1273;23095;-81
2022/02/24 09:19:22;;;;;;;27.60;15.20;;;;;;;9.35;49.69;100713.41;108793;1272;21956;-80
2022/02/24 09:21:51;;;;;;;29.20;15.20;;;;;;;9.41;48.72;100708.59;108804;1275;22991;-80
2022/02/24 09:24:20;;;;;;;30.40;19.00;;;;;;;9.45;48.83;100710.20;108631;1272;23770;-80
2022/02/24 09:26:50;;;;;;;45.80;26.50;;;;;;;9.58;49.11;100705.04;108813;1278;22025;-80
2022/02/24 09:29:19;;;;;;;70.10;45.20;;;;;;;9.72;48.89;100704.19;108687;1278;22003;-80
2022/02/24 09:31:52;;;;;;;25.90;16.40;;;;;;;9.88;48.81;100700.11;108690;1281;23120;-81
2022/02/24 09:34:23;;;;;;;24.70;14.20;;;;;;;9.97;48.29;100698.44;108971;1281;21997;-79
2022/02/24 09:36:52;;;;;;;35.30;18.60;;;;;;;10.00;48.03;100698.85;108008;1281;22002;-79
2022/02/24 09:39:21;;;;;;;28.30;15.80;;;;;;;10.08;48.21;100700.17;108144;1281;22004;-79
2022/02/24 09:41:50;;;;;;;20.20;11.80;;;;;;;10.09;47.62;100696.71;108254;1281;22434;-79
2022/02/24 09:44:19;;;;;;;25.70;12.30;;;;;;;10.01;47.17;100696.11;108229;1278;22382;-79
2022/02/24 09:46:48;;;;;;;18.90;13.20;;;;;;;9.93;46.90;100691.67;108596;1276;22195;-79
2022/02/24 09:49:20;;;;;;;25.30;16.90;;;;;;;9.91;47.10;100688.16;108502;1274;22758;-79
2022/02/24 09:51:49;;;;;;;23.00;14.40;;;;;;;10.05;47.69;100692.37;108673;1272;21991;-79
2022/02/24 09:54:18;;;;;;;23.80;13.80;;;;;;;10.23;47.32;100691.27;108873;1272;21997;-79
2022/02/24 09:56:47;;;;;;;21.10;12.20;;;;;;;10.38;47.13;100680.19;108662;1273;22001;-79
2022/02/24 09:59:16;;;;;;;19.50;10.80;;;;;;;10.60;46.98;100675.13;108591;1274;22409;-80
2022/02/24 10:01:46;;;;;;;21.10;11.40;;;;;;;10.75;46.32;100671.81;108670;1274;23001;-80
2022/02/24 10:04:16;;;;;;;23.30;13.00;;;;;;;10.75;45.08;100666.17;108635;1273;22003;-80
2022/02/24 10:06:45;;;;;;;22.20;12.30;;;;;;;10.71;44.85;100660.08;108718;1273;22083;-80
2022/02/24 10:09:29;;;;;;;23.60;12.40;;;;;;;10.68;44.97;100653.63;108787;1273;23100;-80
2022/02/24 10:12:10;;;;;;;24.30;13.50;;;;;;;10.80;45.06;100648.73;108870;1271;22081;-80
2022/02/24 10:14:39;;;;;;;23.20;11.30;;;;;;;11.00;45.12;100641.51;108725;1272;21999;-80
2022/02/24 10:17:08;;;;;;;23.00;10.90;;;;;;;11.19;44.89;100638.18;108660;1273;23386;-80
2022/02/24 10:19:44;;;;;;;24.40;10.80;;;;;;;11.33;44.27;100631.43;108570;1273;23752;-80
2022/02/24 10:22:31;;;;;;;24.20;12.40;;;;;;;11.57;45.13;100625.95;108789;1273;22003;-79
2022/02/24 10:25:06;;;;;;;19.10;10.30;;;;;;;11.82;43.84;100623.05;108621;1273;22003;-79
2022/02/24 10:27:40;;;;;;;14.10;9.40;;;;;;;11.95;43.50;100620.98;108819;1272;23605;-80
2022/02/24 10:30:19;;;;;;;16.90;10.20;;;;;;;12.16;43.31;100616.19;108660;1272;23711;-81
2022/02/24 10:32:52;;;;;;;16.30;10.00;;;;;;;12.35;42.75;100610.27;108775;1272;23012;-80
2022/02/24 10:35:38;;;;;;;16.90;11.20;;;;;;;12.62;42.75;100608.64;108619;1272;21994;-80
2022/02/24 10:38:13;;;;;;;18.80;10.60;;;;;;;12.95;42.20;100600.87;108705;1272;22014;-80
2022/02/24 10:40:47;;;;;;;15.20;9.80;;;;;;;13.13;41.42;100594.30;108552;1274;21964;-80
2022/02/24 10:43:30;;;;;;;18.20;10.30;;;;;;;13.52;41.32;100587.02;108890;1273;22155;-80
2022/02/24 10:46:13;;;;;;;13.40;9.10;;;;;;;14.01;41.10;100576.27;108738;1270;22111;-78
2022/02/24 10:48:51;;;;;;;13.80;8.70;;;;;;;14.56;39.60;100574.24;108661;1273;22012;-80
2022/02/24 10:51:33;;;;;;;16.40;9.60;;;;;;;15.08;39.35;100569.77;108736;1273;23717;-80
2022/02/24 10:54:13;;;;;;;24.80;12.80;;;;;;;15.84;39.37;100566.94;108797;1273;22051;-80
2022/02/24 10:56:44;;;;;;;18.90;11.80;;;;;;;16.48;37.23;100565.27;108615;1273;22044;-79
2022/02/24 10:59:30;;;;;;;14.90;9.60;;;;;;;17.02;36.60;100562.43;108595;1273;23448;-79
2022/02/24 11:01:59;;;;;;;20.00;8.80;;;;;;;17.30;34.87;100554.95;108630;1275;22007;-79
2022/02/24 11:04:29;;;;;;;14.20;8.50;;;;;;;17.58;34.81;100550.37;108568;1273;23001;-79
2022/02/24 11:06:57;;;;;;;16.30;9.50;;;;;;;17.90;33.93;100544.91;108752;1273;22039;-78
2022/02/24 11:09:27;;;;;;;13.20;9.00;;;;;;;17.95;32.89;100538.53;108642;1273;21997;-79
2022/02/24 11:12:03;;;;;;;12.90;9.10;;;;;;;18.16;33.24;100532.80;108681;1274;21998;-79
2022/02/24 11:14:34;;;;;;;15.90;9.90;;;;;;;18.44;31.72;100530.06;108609;1275;22016;-79
2022/02/24 11:17:05;;;;;;;14.60;9.40;;;;;;;18.70;31.01;100520.53;108749;1275;22247;-79
2022/02/24 11:19:37;;;;;;;17.30;9.50;;;;;;;18.53;30.04;100519.17;108619;1275;22002;-79